DEDBC EDLW-EDLW

Flight info

Callsign DEDBC
Flight time 0h 4m
Altitude
Route
Aircraft C152

Departure

Time 2026-05-01 11:57
Airport Dortmund Airport (EDLW)

Arrival

Time 2026-05-01 12:01
Airport Dortmund Airport (EDLW)
Time Latitude Longitude Altitude Speed Heading
2026-05-01 11:46 51.51197 7.60399 457 ft 0 kts 196°
2026-05-01 11:51 51.51195 7.60398 457 ft 2 kts 196°
2026-05-01 11:51 51.51176 7.60385 460 ft 0 kts 178°
2026-05-01 11:51 51.51146 7.60318 462 ft 11 kts 253°
2026-05-01 11:52 51.51171 7.60121 452 ft 18 kts 286°
2026-05-01 11:52 51.51165 7.60091 453 ft 6 kts 56°
2026-05-01 11:52 51.51215 7.60225 443 ft 21 kts 65°
2026-05-01 11:52 51.51295 7.60453 434 ft 24 kts 61°
2026-05-01 11:53 51.51372 7.60670 431 ft 20 kts 64°
2026-05-01 11:53 51.51444 7.60869 430 ft 20 kts 61°
2026-05-01 11:53 51.51512 7.61048 426 ft 18 kts 44°
2026-05-01 11:53 51.51585 7.61038 422 ft 5 kts 275°
2026-05-01 11:54 51.51575 7.60985 422 ft 5 kts 250°
2026-05-01 11:54 51.51564 7.60926 417 ft 6 kts 255°
2026-05-01 11:54 51.51556 7.60880 421 ft 7 kts 254°
2026-05-01 11:54 51.51540 7.60789 416 ft 10 kts 254°
2026-05-01 11:55 51.51534 7.60660 415 ft 13 kts 300°
2026-05-01 11:55 51.51612 7.60628 415 ft 12 kts 38°
2026-05-01 11:55 51.51656 7.60725 413 ft 9 kts 59°
2026-05-01 11:55 51.51709 7.60880 414 ft 35 kts 67°
2026-05-01 11:56 51.51891 7.61377 447 ft 63 kts 66°
2026-05-01 11:56 51.52146 7.62030 533 ft 71 kts 71°
2026-05-01 11:56 51.52407 7.62706 717 ft 71 kts 66°
2026-05-01 11:56 51.52769 7.63356 881 ft 77 kts 52°
2026-05-01 11:57 51.53097 7.63996 1069 ft 71 kts 63°
2026-05-01 11:57 51.53434 7.64630 1113 ft 82 kts 49°
2026-05-01 11:57 51.54003 7.64832 1147 ft 99 kts 347°
2026-05-01 11:57 51.54561 7.64113 1114 ft 105 kts 304°
2026-05-01 11:58 51.54619 7.63072 1157 ft 92 kts 243°
2026-05-01 11:58 51.54300 7.62122 1053 ft 98 kts 225°
2026-05-01 11:58 51.53396 7.60591 897 ft 94 kts 216°
2026-05-01 11:59 51.52978 7.59858 891 ft 81 kts 224°
2026-05-01 11:59 51.52625 7.59147 917 ft 79 kts 217°
2026-05-01 11:59 51.52214 7.58612 842 ft 74 kts 194°
2026-05-01 12:00 51.51471 7.58955 688 ft 52 kts 141°
2026-05-01 12:00 51.51287 7.59388 595 ft 51 kts 103°
2026-05-01 12:00 51.51596 7.60529 452 ft 51 kts 70°
2026-05-01 12:01 51.51755 7.60967 419 ft 32 kts 75°
2026-05-01 12:01 51.51863 7.61322 414 ft 52 kts 59°
2026-05-01 12:01 51.52081 7.61859 499 ft 60 kts 75°
2026-05-01 12:01 51.52287 7.62506 619 ft 67 kts 69°
2026-05-01 12:02 51.52487 7.63100 781 ft 60 kts 69°
2026-05-01 12:02 51.52785 7.63707 893 ft 76 kts 44°
2026-05-01 12:02 51.53357 7.63762 939 ft 95 kts 359°
2026-05-01 12:02 51.54012 7.63390 957 ft 106 kts 330°
2026-05-01 12:03 51.54514 7.62519 976 ft 106 kts 288°
2026-05-01 12:03 51.54556 7.61410 1025 ft 100 kts 258°
2026-05-01 12:03 51.54295 7.60393 1042 ft 97 kts 233°
2026-05-01 12:03 51.53851 7.59576 1045 ft 96 kts 216°
2026-05-01 12:04 51.53369 7.58866 980 ft 95 kts 211°
2026-05-01 12:04 51.52856 7.58225 867 ft 88 kts 197°
2026-05-01 12:04 51.52389 7.57743 828 ft 82 kts 201°
2026-05-01 12:04 51.51973 7.57665 883 ft 54 kts 143°
2026-05-01 12:05 51.51690 7.58071 795 ft 54 kts 132°
2026-05-01 12:05 51.51263 7.58997 610 ft 55 kts 106°
2026-05-01 12:05 51.51280 7.59599 538 ft 59 kts 73°
2026-05-01 12:06 51.51474 7.60168 464 ft 59 kts 67°
2026-05-01 12:06 51.51661 7.60698 437 ft 50 kts 66°
2026-05-01 12:06 51.51814 7.61132 420 ft 38 kts 67°
2026-05-01 12:06 51.51904 7.61419 411 ft 22 kts 61°
2026-05-01 12:07 51.51969 7.61620 409 ft 19 kts 62°
2026-05-01 12:07 51.52042 7.61821 406 ft 23 kts 60°
2026-05-01 12:07 51.52121 7.62045 407 ft 22 kts 60°
2026-05-01 12:07 51.52192 7.62253 405 ft 17 kts 79°
2026-05-01 12:08 51.52150 7.62344 405 ft 10 kts 147°
2026-05-01 12:08 51.52095 7.62389 404 ft 9 kts 165°
2026-05-01 12:08 51.52039 7.62337 404 ft 11 kts 233°
2026-05-01 12:08 51.51995 7.62229 407 ft 13 kts 238°
2026-05-01 12:09 51.51937 7.62074 408 ft 19 kts 240°
2026-05-01 12:09 51.51870 7.61896 411 ft 17 kts 240°
2026-05-01 12:09 51.51811 7.61730 412 ft 17 kts 242°
2026-05-01 12:09 51.51700 7.61411 418 ft 37 kts 239°
2026-05-01 12:10 51.51619 7.61161 420 ft 20 kts 239°
2026-05-01 12:10 51.51490 7.60783 421 ft 15 kts 230°
2026-05-01 12:10 51.51440 7.60748 430 ft 7 kts 202°
2026-05-01 12:11 51.51281 7.60428 435 ft 25 kts 237°
2026-05-01 12:11 51.51207 7.60335 451 ft 5 kts 105°
2026-05-01 12:11 51.51231 7.60407 451 ft 15 kts 64°
2026-05-01 12:12 51.51272 7.60563 454 ft 8 kts 117°
2026-05-01 12:12 51.51262 7.60578 456 ft 0 kts 154°